Flight Track Log - Related Links

Times and Time Zones

All times are in EDT time to prevent confusion due to time zone crossing. See the AAR8736 flight status page for this flight to view local times or setup timezone preferences in your user account.


Time Position Orientation Groundspeed Altitude Reporting Facility
EDT Latitude Longitude Course Direction KTS MPH feet Rate Location/Type
Wed 04:25:00 AM 36.7635 127.0379 346° North  Level Estimated
Wed 04:26:00 AM 36.8436 127.0132 346° North  Level Estimated
Wed 04:27:00 AM 36.9237 126.9885 346° North  Level Estimated
Wed 04:28:00 AM 37.0037 126.9637 346° North  Level Estimated
Wed 04:29:00 AM 37.0838 126.9389 346° North  Level Estimated
Wed 04:30:00 AM 37.1639 126.9140 346° North  Level Estimated
Wed 04:31:00 AM 37.2440 126.8890 346° North  Level Estimated
Wed 04:32:00 AM 37.3240 126.8641 346° North  Level Estimated
Wed 04:33:00 AM 37.4041 126.8390 346° North  Level Estimated
Wed 04:34:00 AM 37.4841 126.8139 346° North  Level Estimated
Wed 04:35:00 AM 37.5583 126.7906 346° North  Level Estimated
Wed 04:35:14 AM 37.3450 127.0290 346° North 242 278 4,300  Level FlightAware ADS-B
Wed 04:35:36 AM 37.3680 127.0140 333° Northwest 228 262 4,000 -686 Descending FlightAware ADS-B
Wed 04:35:49 AM 37.3770 127.0070 328° Northwest 223 257 3,900 -333 Descending FlightAware ADS-B
Wed 04:36:12 AM 37.3990 126.9910 330° Northwest 206 237 3,800 -333 Descending FlightAware ADS-B
Wed 04:36:25 AM 37.4070 126.9830 322° Northwest 195 224 3,700 -720 Descending FlightAware ADS-B
Wed 04:36:37 AM 37.4160 126.9720 316° Northwest 192 221 3,500 -267 Descending FlightAware ADS-B
Wed 04:37:10 AM 37.4320 126.9510 314° West 190 219 3,500  Level FlightAware ADS-B
Wed 04:39:00 AM 37.5386 126.8157 315° West  Level Estimated
Wed 04:40:00 AM 37.5583 126.7906 315° West  Level Estimated
Wed 04:41:00 AM 37.5583 126.7906 288° West  Level Estimated
Wed 04:42:00 AM 37.5583 126.7906 288° West  Level Estimated
Wed 04:43:00 AM 37.5583 126.7906 288° West  Level Estimated

Login

Don't have an account? Register now (free) for customized features, flight alerts, and more!